createdAt,value
2018-11-11T00:00:10.402Z,13.67
2018-11-11T00:02:39.109Z,13.64
2018-11-11T00:05:09.302Z,13.64
2018-11-11T00:07:38.021Z,13.63
2018-11-11T00:10:21.644Z,13.62
2018-11-11T00:12:50.608Z,13.65
2018-11-11T00:15:19.904Z,13.62
2018-11-11T00:17:48.960Z,13.62
2018-11-11T00:20:17.761Z,13.56
2018-11-11T00:22:46.485Z,13.56
2018-11-11T00:25:15.185Z,13.55
2018-11-11T00:27:43.871Z,13.53
2018-11-11T00:30:18.059Z,13.53
2018-11-11T00:32:46.768Z,13.54
2018-11-11T00:35:15.514Z,13.52
2018-11-11T00:37:44.212Z,13.52
2018-11-11T00:40:14.132Z,13.53
2018-11-11T00:42:43.744Z,13.55
2018-11-11T00:45:13.273Z,13.54
2018-11-11T00:47:42.856Z,13.52
2018-11-11T00:50:12.237Z,13.50
2018-11-11T00:52:40.967Z,13.47
2018-11-11T00:55:13.045Z,13.47
2018-11-11T00:57:42.322Z,13.42
2018-11-11T01:00:12.960Z,13.38
2018-11-11T01:02:42.464Z,13.34
2018-11-11T01:05:11.993Z,13.31
2018-11-11T01:07:41.356Z,13.29
2018-11-11T01:10:12.747Z,13.25
2018-11-11T01:12:42.772Z,13.21
2018-11-11T01:15:12.884Z,13.19
2018-11-11T01:17:41.606Z,13.16
2018-11-11T01:20:13.225Z,13.14
2018-11-11T01:22:42.112Z,13.13
2018-11-11T01:25:12.744Z,13.11
2018-11-11T01:27:42.578Z,13.12
2018-11-11T01:30:11.289Z,13.15
2018-11-11T01:32:40.062Z,13.16
2018-11-11T01:35:11.272Z,13.12
2018-11-11T01:37:40.520Z,13.15
2018-11-11T01:40:09.728Z,13.14
2018-11-11T01:42:38.556Z,13.15
2018-11-11T01:45:10.801Z,13.17
2018-11-11T01:47:39.770Z,13.20
2018-11-11T01:50:09.360Z,13.20
2018-11-11T01:52:38.695Z,13.19
2018-11-11T01:55:07.603Z,13.18
2018-11-11T01:57:36.327Z,13.15
2018-11-11T02:00:06.565Z,13.15
2018-11-11T02:02:35.251Z,13.19
2018-11-11T02:05:05.256Z,13.19
2018-11-11T02:07:33.969Z,13.17
2018-11-11T02:10:04.041Z,13.17
2018-11-11T02:12:52.007Z,13.18
2018-11-11T02:15:21.372Z,13.15
2018-11-11T02:17:50.889Z,13.14
2018-11-11T02:20:20.599Z,13.16
2018-11-11T02:22:50.459Z,13.15
2018-11-11T02:25:19.134Z,13.15
2018-11-11T02:27:47.916Z,13.12
2018-11-11T02:30:18.939Z,13.13
2018-11-11T02:32:48.682Z,13.15
2018-11-11T02:35:17.393Z,13.11
2018-11-11T02:37:46.249Z,13.11
2018-11-11T02:40:18.983Z,13.09
2018-11-11T02:42:48.101Z,13.08
2018-11-11T02:45:17.771Z,13.04
2018-11-11T02:47:46.500Z,13.03
2018-11-11T02:50:17.296Z,12.99
2018-11-11T02:52:47.180Z,12.99
2018-11-11T02:55:16.501Z,13.02
2018-11-11T02:57:45.808Z,12.97
2018-11-11T03:00:17.392Z,12.98
2018-11-11T03:02:46.662Z,12.92
2018-11-11T03:05:17.087Z,12.93
2018-11-11T03:07:45.789Z,12.90
2018-11-11T03:10:16.313Z,12.90
2018-11-11T03:12:45.695Z,12.91
2018-11-11T03:15:14.996Z,12.93
2018-11-11T03:17:44.255Z,12.90
2018-11-11T03:20:13.602Z,12.91
2018-11-11T03:22:42.350Z,12.90
2018-11-11T03:25:17.992Z,12.92
2018-11-11T03:27:47.554Z,12.89
2018-11-11T03:30:17.277Z,12.89
2018-11-11T03:32:46.546Z,12.86
2018-11-11T03:35:15.531Z,12.87
2018-11-11T03:37:45.015Z,12.85
2018-11-11T03:40:15.474Z,12.83
2018-11-11T03:42:44.459Z,12.78
2018-11-11T03:45:14.911Z,12.75
2018-11-11T03:47:44.600Z,12.74
2018-11-11T03:50:13.317Z,12.73
2018-11-11T03:52:42.243Z,12.72
2018-11-11T03:55:11.269Z,12.71
2018-11-11T03:57:41.211Z,12.75
2018-11-11T04:00:11.414Z,12.74
2018-11-11T04:02:41.013Z,12.72
2018-11-11T04:05:11.037Z,12.70
2018-11-11T04:07:40.836Z,12.75
2018-11-11T04:10:12.450Z,12.76
2018-11-11T04:12:41.392Z,12.74
2018-11-11T04:15:11.931Z,12.73
2018-11-11T04:17:40.720Z,12.79
2018-11-11T04:20:11.349Z,12.79
2018-11-11T04:22:40.045Z,12.84
2018-11-11T04:25:08.835Z,12.85
2018-11-11T04:27:37.564Z,12.89
2018-11-11T04:30:06.960Z,12.91
2018-11-11T04:32:35.681Z,12.91
2018-11-11T04:35:06.447Z,12.95
2018-11-11T04:37:35.149Z,13.01
2018-11-11T04:40:06.651Z,13.02
2018-11-11T04:42:35.356Z,13.01
2018-11-11T04:45:04.064Z,13.04
2018-11-11T04:47:32.802Z,13.08
2018-11-11T04:50:01.916Z,13.08
2018-11-11T04:52:30.625Z,13.11
2018-11-11T04:54:59.339Z,13.11
2018-11-11T04:57:28.054Z,13.16
2018-11-11T04:59:56.749Z,13.18
2018-11-11T05:02:25.456Z,13.18
2018-11-11T05:04:54.899Z,13.14
2018-11-11T05:07:24.537Z,13.17
2018-11-11T05:09:53.251Z,13.20
2018-11-11T05:12:22.709Z,13.21
2018-11-11T05:14:51.419Z,13.22
2018-11-11T05:17:20.732Z,13.22
2018-11-11T05:19:49.449Z,13.24
2018-11-11T05:22:18.156Z,13.23
2018-11-11T05:24:46.903Z,13.24
2018-11-11T05:27:15.608Z,13.25
2018-11-11T05:29:44.309Z,13.20
2018-11-11T05:32:13.024Z,13.20
2018-11-11T05:34:41.740Z,13.21
2018-11-11T05:37:10.441Z,13.24
2018-11-11T05:39:39.148Z,13.25
2018-11-11T05:42:07.884Z,13.26
2018-11-11T05:44:36.596Z,13.25
2018-11-11T05:47:05.613Z,13.27
2018-11-11T05:49:35.084Z,13.29
2018-11-11T05:52:04.938Z,13.31
2018-11-11T05:54:34.743Z,13.31
2018-11-11T05:57:03.478Z,13.29
2018-11-11T05:59:32.273Z,13.28
2018-11-11T06:02:01.008Z,13.31
2018-11-11T06:04:29.788Z,13.34
2018-11-11T06:06:58.494Z,13.33
2018-11-11T06:09:27.226Z,13.31
2018-11-11T06:11:55.961Z,13.31
2018-11-11T06:14:24.673Z,13.29
2018-11-11T06:16:53.364Z,13.30
2018-11-11T06:19:22.086Z,13.33
2018-11-11T06:21:50.827Z,13.33
2018-11-11T06:24:19.539Z,13.31
2018-11-11T06:26:48.662Z,13.30
2018-11-11T06:29:18.523Z,13.33
2018-11-11T06:31:47.372Z,13.32
2018-11-11T06:34:16.612Z,13.29
2018-11-11T06:36:46.244Z,13.30
2018-11-11T06:39:14.999Z,13.28
2018-11-11T06:41:44.344Z,13.26
2018-11-11T06:44:13.048Z,13.31
2018-11-11T06:46:41.763Z,13.31
2018-11-11T06:49:10.480Z,13.33
2018-11-11T06:51:39.187Z,13.32
2018-11-11T06:54:07.919Z,13.29
2018-11-11T06:56:36.656Z,13.29
2018-11-11T06:59:06.077Z,13.21
2018-11-11T07:01:34.799Z,13.24
2018-11-11T07:04:06.518Z,13.22
2018-11-11T07:06:35.212Z,13.24
2018-11-11T07:09:05.840Z,13.22
2018-11-11T07:11:34.544Z,13.19
2018-11-11T07:14:03.313Z,13.19
2018-11-11T07:16:31.984Z,13.18
2018-11-11T07:19:01.529Z,13.16
2018-11-11T07:21:30.236Z,13.15
2018-11-11T07:23:58.951Z,13.16
2018-11-11T07:26:27.964Z,13.10
2018-11-11T07:28:56.691Z,13.12
2018-11-11T07:31:26.535Z,13.09
2018-11-11T07:33:55.266Z,13.07
2018-11-11T07:36:25.592Z,13.01
2018-11-11T07:38:54.312Z,13.02
2018-11-11T07:41:23.036Z,12.97
2018-11-11T07:43:51.772Z,12.92
2018-11-11T07:46:20.468Z,12.92
2018-11-11T07:48:49.179Z,12.90
2018-11-11T07:51:18.180Z,12.90
2018-11-11T07:53:46.865Z,12.85
2018-11-11T07:56:15.594Z,12.80
2018-11-11T07:58:44.324Z,12.74
2018-11-11T08:01:13.370Z,12.75
2018-11-11T08:03:42.072Z,12.74
2018-11-11T08:06:11.547Z,12.73
2018-11-11T08:08:40.400Z,12.69
2018-11-11T08:11:20.719Z,12.64
2018-11-11T08:13:50.475Z,12.63
2018-11-11T08:16:19.193Z,12.64
2018-11-11T08:18:47.911Z,12.63
2018-11-11T08:21:16.696Z,12.63
2018-11-11T08:23:45.387Z,12.64
2018-11-11T08:26:14.112Z,12.72
2018-11-11T08:28:42.805Z,12.72
2018-11-11T08:31:12.369Z,12.73
2018-11-11T08:33:41.076Z,12.70
2018-11-11T08:36:09.798Z,12.69
2018-11-11T08:38:39.214Z,12.75
2018-11-11T08:41:08.189Z,12.71
2018-11-11T08:43:36.905Z,12.74
2018-11-11T08:46:06.459Z,12.77
2018-11-11T08:48:35.233Z,12.79
2018-11-11T08:51:06.082Z,12.82
2018-11-11T08:53:34.807Z,12.83
2018-11-11T08:56:23.973Z,12.83
2018-11-11T08:58:52.672Z,12.86
2018-11-11T09:01:21.828Z,12.88
2018-11-11T09:03:50.879Z,12.93
2018-11-11T09:06:19.711Z,13.02
2018-11-11T09:08:49.281Z,13.04
2018-11-11T09:11:18.076Z,13.10
2018-11-11T09:13:47.416Z,13.13
2018-11-11T09:16:16.392Z,13.22
2018-11-11T09:18:45.963Z,13.24
2018-11-11T09:21:14.728Z,13.28
2018-11-11T09:23:43.492Z,13.29
2018-11-11T09:26:12.191Z,13.30
2018-11-11T09:28:40.948Z,13.34
2018-11-11T09:31:09.736Z,13.36
2018-11-11T09:33:38.646Z,13.40
2018-11-11T09:36:08.120Z,13.44
2018-11-11T09:38:36.805Z,13.45
2018-11-11T09:41:06.373Z,13.48
2018-11-11T09:43:35.080Z,13.51
2018-11-11T09:46:05.573Z,13.61
2018-11-11T09:48:34.312Z,13.69
2018-11-11T09:51:03.053Z,13.75
2018-11-11T09:56:12.013Z,13.87
2018-11-11T09:58:40.817Z,13.93
2018-11-11T10:01:09.744Z,13.98
2018-11-11T10:03:42.354Z,14.06
2018-11-11T10:06:19.304Z,14.12
2018-11-11T10:08:53.378Z,14.19
2018-11-11T10:11:27.841Z,14.25
2018-11-11T10:16:02.872Z,14.29
2018-11-11T10:18:36.868Z,14.38
2018-11-11T10:21:10.978Z,14.34
2018-11-11T10:23:43.588Z,14.38
2018-11-11T10:28:24.468Z,14.41
2018-11-11T10:30:58.979Z,14.41
2018-11-11T10:33:39.181Z,14.44
2018-11-11T10:36:13.671Z,14.48
2018-11-11T10:38:53.248Z,14.49
2018-11-11T10:41:26.049Z,14.51
2018-11-11T10:43:58.057Z,14.50
2018-11-11T10:46:31.760Z,14.51
2018-11-11T10:49:04.864Z,14.55
2018-11-11T10:51:33.579Z,14.51
2018-11-11T10:54:02.425Z,14.54
2018-11-11T11:05:10.279Z,14.64
2018-11-11T11:07:38.995Z,14.66
2018-11-11T11:10:08.611Z,14.74
2018-11-11T11:12:37.372Z,14.79
2018-11-11T11:15:07.614Z,14.80
2018-11-11T11:17:36.355Z,14.85
2018-11-11T11:20:05.365Z,14.90
2018-11-11T11:22:34.102Z,14.93
2018-11-11T11:25:02.832Z,14.93
2018-11-11T11:27:31.592Z,14.95
2018-11-11T11:30:00.678Z,14.94
2018-11-11T11:32:29.436Z,14.91
2018-11-11T11:34:58.632Z,14.95
2018-11-11T11:37:27.940Z,14.97
2018-11-11T11:39:56.655Z,14.97
2018-11-11T11:42:25.364Z,15.00
2018-11-11T11:44:54.092Z,14.96
2018-11-11T11:47:23.509Z,14.97
2018-11-11T11:49:52.256Z,15.02
2018-11-11T11:52:22.209Z,15.02
2018-11-11T11:54:50.888Z,15.07
2018-11-11T11:57:19.624Z,15.09
2018-11-11T11:59:48.363Z,15.10
2018-11-11T12:02:17.308Z,15.14
2018-11-11T12:04:45.988Z,15.20
2018-11-11T12:07:14.687Z,15.21
2018-11-11T12:09:43.430Z,15.24
2018-11-11T12:12:12.153Z,15.24
2018-11-11T12:14:40.896Z,15.19
2018-11-11T12:17:09.703Z,15.21
2018-11-11T12:19:38.365Z,15.23
2018-11-11T12:22:07.640Z,15.28
2018-11-11T12:24:36.609Z,15.30
2018-11-11T12:27:05.594Z,15.29
2018-11-11T12:29:46.858Z,15.28
2018-11-11T12:32:15.564Z,15.27
2018-11-11T12:34:44.420Z,15.30
2018-11-11T12:37:13.142Z,15.28
2018-11-11T12:39:41.900Z,15.22
2018-11-11T12:42:10.568Z,15.24
2018-11-11T12:44:39.683Z,15.25
2018-11-11T12:47:08.431Z,15.25
2018-11-11T12:49:37.132Z,15.24
2018-11-11T12:52:05.880Z,15.22
2018-11-11T12:54:34.604Z,15.25
2018-11-11T12:57:03.340Z,15.22
2018-11-11T12:59:32.062Z,15.28
2018-11-11T13:02:00.817Z,15.34
2018-11-11T13:04:29.588Z,15.33
2018-11-11T13:06:58.502Z,15.33
2018-11-11T13:09:27.649Z,15.35
2018-11-11T13:11:56.415Z,15.35
2018-11-11T13:14:25.283Z,15.37
2018-11-11T13:16:54.384Z,15.40
2018-11-11T13:19:23.725Z,15.40
2018-11-11T13:21:52.412Z,15.41
2018-11-11T13:24:21.133Z,15.40
2018-11-11T13:26:50.459Z,15.41
2018-11-11T13:29:19.184Z,15.41
2018-11-11T13:31:48.623Z,15.40
2018-11-11T13:34:17.340Z,15.41
2018-11-11T13:36:47.075Z,15.38
2018-11-11T13:39:15.796Z,15.34
2018-11-11T13:41:44.522Z,15.28
2018-11-11T13:44:13.276Z,15.26
2018-11-11T13:46:42.162Z,15.23
2018-11-11T13:49:10.999Z,15.21
2018-11-11T13:51:39.734Z,15.14
2018-11-11T13:54:08.508Z,15.09
2018-11-11T13:56:38.640Z,15.06
2018-11-11T13:59:08.766Z,15.00
2018-11-11T14:01:37.544Z,14.93
2018-11-11T14:04:06.709Z,14.87
2018-11-11T14:06:35.588Z,14.81
2018-11-11T14:09:09.252Z,14.77
2018-11-11T14:11:38.276Z,14.75
2018-11-11T14:14:07.230Z,14.70
2018-11-11T14:16:35.988Z,14.68
2018-11-11T14:19:05.373Z,14.66
2018-11-11T14:21:34.002Z,14.60
2018-11-11T14:24:03.044Z,14.55
2018-11-11T14:26:32.412Z,14.53
2018-11-11T14:29:01.265Z,14.55
2018-11-11T14:31:29.936Z,14.52
2018-11-11T14:33:58.657Z,14.49
2018-11-11T14:36:27.364Z,14.44
2018-11-11T14:38:56.776Z,14.41
2018-11-11T14:41:25.484Z,14.37
2018-11-11T14:43:54.201Z,14.39
2018-11-11T14:46:22.937Z,14.39
2018-11-11T14:48:52.257Z,14.36
2018-11-11T14:51:20.972Z,14.34
2018-11-11T14:53:50.185Z,14.30
2018-11-11T14:56:18.904Z,14.29
2018-11-11T14:58:48.410Z,14.26
2018-11-11T15:01:17.030Z,14.24
2018-11-11T15:03:45.865Z,14.26
2018-11-11T15:06:14.785Z,14.18
2018-11-11T15:08:43.536Z,14.18
2018-11-11T15:11:12.940Z,14.20
2018-11-11T15:13:42.344Z,14.15
2018-11-11T15:16:11.299Z,14.14
2018-11-11T15:18:40.005Z,14.15
2018-11-11T15:21:09.526Z,14.11
2018-11-11T15:23:38.174Z,14.08
2018-11-11T15:26:08.236Z,14.04
2018-11-11T15:28:36.956Z,13.98
2018-11-11T15:31:06.706Z,13.99
2018-11-11T15:33:35.260Z,13.98
2018-11-11T15:36:04.975Z,13.94
2018-11-11T15:38:33.696Z,13.89
2018-11-11T15:41:02.431Z,13.91
2018-11-11T15:43:32.540Z,13.90
2018-11-11T15:46:01.224Z,13.83
2018-11-11T15:48:29.934Z,13.84
2018-11-11T15:50:58.636Z,13.80
2018-11-11T15:53:33.983Z,13.71
2018-11-11T15:56:03.592Z,13.66
2018-11-11T15:58:32.315Z,13.62
2018-11-11T16:01:01.138Z,13.61
2018-11-11T16:03:29.856Z,13.64
2018-11-11T16:05:58.552Z,13.67
2018-11-11T16:08:27.260Z,13.62
2018-11-11T16:10:55.976Z,13.61
2018-11-11T16:13:24.697Z,13.61
2018-11-11T16:15:53.423Z,13.62
2018-11-11T16:18:22.154Z,13.59
2018-11-11T16:20:50.873Z,13.60
2018-11-11T16:23:19.651Z,13.62
2018-11-11T16:25:48.333Z,13.63
2018-11-11T16:28:17.044Z,13.65
2018-11-11T16:30:46.492Z,13.64
2018-11-11T16:33:15.437Z,13.59
2018-11-11T16:35:44.099Z,13.63
2018-11-11T16:38:13.444Z,13.67
2018-11-11T16:40:42.236Z,13.62
2018-11-11T16:43:10.881Z,13.58
2018-11-11T16:45:39.608Z,13.56
2018-11-11T16:48:08.996Z,13.52
2018-11-11T16:50:38.259Z,13.51
2018-11-11T16:53:08.300Z,13.48
2018-11-11T16:55:37.531Z,13.45
2018-11-11T16:58:06.528Z,13.48
2018-11-11T17:00:48.231Z,13.45
2018-11-11T17:03:16.956Z,13.40
2018-11-11T17:05:46.417Z,13.37
2018-11-11T17:08:15.144Z,13.34
2018-11-11T17:10:43.883Z,13.33
2018-11-11T17:13:13.664Z,13.29
2018-11-11T17:15:42.421Z,13.24
2018-11-11T17:18:11.134Z,13.21
2018-11-11T17:20:39.941Z,13.20
2018-11-11T17:23:09.656Z,13.16
2018-11-11T17:25:38.407Z,13.11
2018-11-11T17:28:07.944Z,13.06
2018-11-11T17:30:36.583Z,13.01
2018-11-11T17:33:06.380Z,13.02
2018-11-11T17:35:35.052Z,13.02
2018-11-11T17:38:03.795Z,13.00
2018-11-11T17:40:32.538Z,13.01
2018-11-11T17:43:01.782Z,12.95
2018-11-11T17:45:30.512Z,12.94
2018-11-11T17:47:59.235Z,12.91
2018-11-11T17:50:29.910Z,12.89
2018-11-11T17:52:59.288Z,12.90
2018-11-11T17:55:29.462Z,12.85
2018-11-11T17:57:58.113Z,12.81
2018-11-11T18:00:27.908Z,12.77
2018-11-11T18:02:57.234Z,12.80
2018-11-11T18:05:27.979Z,12.83
2018-11-11T18:07:57.334Z,12.80
2018-11-11T18:10:26.504Z,12.81
2018-11-11T18:12:55.265Z,12.81
2018-11-11T18:15:25.349Z,12.85
2018-11-11T18:17:54.112Z,12.85
2018-11-11T18:20:24.149Z,12.85
2018-11-11T18:25:52.404Z,12.79
2018-11-11T18:28:21.214Z,12.73
2018-11-11T18:30:50.545Z,12.77
2018-11-11T18:33:19.252Z,12.76
2018-11-11T18:35:48.072Z,12.77
2018-11-11T18:38:17.036Z,12.78
2018-11-11T18:40:46.417Z,12.75
2018-11-11T18:43:15.136Z,12.71
2018-11-11T18:45:43.932Z,12.73
2018-11-11T18:48:12.599Z,12.67
2018-11-11T18:50:41.304Z,12.67
2018-11-11T18:53:10.028Z,12.70
2018-11-11T18:55:38.748Z,12.71
2018-11-11T18:58:07.444Z,12.70
2018-11-11T19:00:36.157Z,12.70
2018-11-11T19:03:05.182Z,12.69
2018-11-11T19:05:33.885Z,12.63
2018-11-11T19:08:02.716Z,12.60
2018-11-11T19:10:32.879Z,12.60
2018-11-11T19:13:02.937Z,12.62
2018-11-11T19:15:32.276Z,12.56
2018-11-11T19:18:01.552Z,12.53
2018-11-11T19:20:30.710Z,12.51
2018-11-11T19:22:59.420Z,12.46
2018-11-11T19:25:29.176Z,12.48
2018-11-11T19:27:58.757Z,12.45
2018-11-11T19:30:28.268Z,12.43
2018-11-11T19:32:56.936Z,12.43
2018-11-11T19:35:26.228Z,12.43
2018-11-11T19:37:55.784Z,12.45
2018-11-11T19:40:36.681Z,12.42
2018-11-11T19:43:05.417Z,12.40
2018-11-11T19:45:34.148Z,12.42
2018-11-11T19:48:02.943Z,12.40
2018-11-11T19:50:32.451Z,12.39
2018-11-11T19:53:01.380Z,12.37
2018-11-11T19:55:30.098Z,12.34
2018-11-11T19:57:58.828Z,12.35
2018-11-11T20:00:28.984Z,12.36
2018-11-11T20:02:59.197Z,12.37
2018-11-11T20:05:27.921Z,12.39
2018-11-11T20:07:57.617Z,12.44
2018-11-11T20:10:27.424Z,12.43
2018-11-11T20:12:56.284Z,12.45
2018-11-11T20:15:27.132Z,12.46
2018-11-11T20:17:55.888Z,12.50
2018-11-11T20:20:27.204Z,12.52
2018-11-11T20:22:56.629Z,12.50
2018-11-11T20:25:25.344Z,12.48
2018-11-11T20:27:54.595Z,12.45
2018-11-11T20:30:24.565Z,12.41
2018-11-11T20:32:53.366Z,12.37
2018-11-11T20:35:23.487Z,12.36
2018-11-11T20:38:06.545Z,12.40
2018-11-11T20:40:35.734Z,12.41
2018-11-11T20:43:05.292Z,12.41
2018-11-11T20:45:34.598Z,12.36
2018-11-11T20:48:03.868Z,12.34
2018-11-11T20:50:33.534Z,12.35
2018-11-11T20:53:03.385Z,12.31
2018-11-11T20:55:32.141Z,12.28
2018-11-11T20:58:01.035Z,12.29
2018-11-11T21:00:34.986Z,12.27
2018-11-11T21:03:11.922Z,12.28
2018-11-11T21:05:41.767Z,12.24
2018-11-11T21:08:10.529Z,12.26
2018-11-11T21:10:41.155Z,12.26
2018-11-11T21:13:10.231Z,12.22
2018-11-11T21:15:38.936Z,12.24
2018-11-11T21:18:08.220Z,12.23
2018-11-11T21:20:36.962Z,12.21
2018-11-11T21:23:07.068Z,12.17
2018-11-11T21:25:35.892Z,12.14
2018-11-11T21:28:04.780Z,12.16
2018-11-11T21:30:33.780Z,12.16
2018-11-11T21:33:02.504Z,12.15
2018-11-11T21:35:31.288Z,12.13
2018-11-11T21:38:00.187Z,12.13
2018-11-11T21:40:28.870Z,12.06
2018-11-11T21:42:58.066Z,12.06
2018-11-11T21:45:28.018Z,12.03
2018-11-11T21:47:56.787Z,12.05
2018-11-11T21:50:26.349Z,12.07
2018-11-11T21:53:02.211Z,12.07
2018-11-11T21:55:30.879Z,12.07
2018-11-11T21:57:59.600Z,12.08
2018-11-11T22:00:28.327Z,12.09
2018-11-11T22:02:57.103Z,12.06
2018-11-11T22:05:25.802Z,12.05
2018-11-11T22:07:54.936Z,12.05
2018-11-11T22:10:23.665Z,12.05
2018-11-11T22:12:53.255Z,12.04
2018-11-11T22:15:22.247Z,12.04
2018-11-11T22:17:50.981Z,12.05
2018-11-11T22:20:20.309Z,12.03
2018-11-11T22:22:55.267Z,12.04
2018-11-11T22:25:24.013Z,12.07
2018-11-11T22:27:52.761Z,12.06
2018-11-11T22:30:21.464Z,12.09
2018-11-11T22:32:50.220Z,12.09
2018-11-11T22:35:18.951Z,12.09
2018-11-11T22:37:47.665Z,12.07
2018-11-11T22:40:16.428Z,12.09
2018-11-11T22:42:45.145Z,12.07
2018-11-11T22:45:14.804Z,12.07
2018-11-11T22:47:43.532Z,12.08
2018-11-11T22:50:14.399Z,12.07
2018-11-11T22:52:43.206Z,12.08
2018-11-11T22:55:12.849Z,12.09
2018-11-11T22:57:42.456Z,12.11
2018-11-11T23:00:18.221Z,12.12
2018-11-11T23:02:46.975Z,12.13
2018-11-11T23:05:16.684Z,12.12
2018-11-11T23:07:45.556Z,12.10
2018-11-11T23:10:14.858Z,12.08
2018-11-11T23:12:43.604Z,12.05
2018-11-11T23:15:13.544Z,12.03
2018-11-11T23:17:42.318Z,12.01
2018-11-11T23:20:12.704Z,11.98
2018-11-11T23:22:41.996Z,11.98
2018-11-11T23:25:12.220Z,11.98
2018-11-11T23:27:41.140Z,12.01
2018-11-11T23:30:12.177Z,12.01
2018-11-11T23:32:40.937Z,12.05
2018-11-11T23:35:10.171Z,12.07
2018-11-11T23:37:39.128Z,12.09
2018-11-11T23:40:09.912Z,12.14
2018-11-11T23:42:38.852Z,12.15
2018-11-11T23:45:08.071Z,12.15
2018-11-11T23:47:37.063Z,12.18
2018-11-11T23:50:09.912Z,12.20
2018-11-11T23:52:38.907Z,12.22
2018-11-11T23:55:08.940Z,12.26
2018-11-11T23:57:37.687Z,12.26
